sensor_id;sensor_type;location;lat;lon;timestamp;P1;durP1;ratioP1;P2;durP2;ratioP2
44328;SDS011;30039;51.462;6.892;2023-08-12T00:01:38;14.05;;;8.82;;
44328;SDS011;30039;51.462;6.892;2023-08-12T00:04:24;14.77;;;8.75;;
44328;SDS011;30039;51.462;6.892;2023-08-12T00:07:10;14.77;;;9.32;;
44328;SDS011;30039;51.462;6.892;2023-08-12T00:09:55;15.93;;;9.43;;
44328;SDS011;30039;51.462;6.892;2023-08-12T00:12:41;13.95;;;9.10;;
44328;SDS011;30039;51.462;6.892;2023-08-12T00:15:27;15.82;;;9.20;;
44328;SDS011;30039;51.462;6.892;2023-08-12T00:18:12;13.48;;;9.15;;
44328;SDS011;30039;51.462;6.892;2023-08-12T00:20:58;18.45;;;9.05;;
44328;SDS011;30039;51.462;6.892;2023-08-12T00:23:44;16.73;;;8.85;;
44328;SDS011;30039;51.462;6.892;2023-08-12T00:26:30;14.85;;;9.48;;
44328;SDS011;30039;51.462;6.892;2023-08-12T00:29:16;13.25;;;8.77;;
44328;SDS011;30039;51.462;6.892;2023-08-12T00:32:01;16.30;;;8.95;;
44328;SDS011;30039;51.462;6.892;2023-08-12T00:34:47;16.98;;;9.40;;
44328;SDS011;30039;51.462;6.892;2023-08-12T00:37:33;14.02;;;9.07;;
44328;SDS011;30039;51.462;6.892;2023-08-12T00:40:18;14.90;;;9.23;;
44328;SDS011;30039;51.462;6.892;2023-08-12T00:43:04;15.20;;;8.98;;
44328;SDS011;30039;51.462;6.892;2023-08-12T00:45:49;13.90;;;8.90;;
44328;SDS011;30039;51.462;6.892;2023-08-12T00:48:35;13.50;;;7.85;;
44328;SDS011;30039;51.462;6.892;2023-08-12T00:51:21;12.02;;;7.72;;
44328;SDS011;30039;51.462;6.892;2023-08-12T00:54:07;12.40;;;7.82;;
44328;SDS011;30039;51.462;6.892;2023-08-12T00:56:53;13.23;;;8.07;;
44328;SDS011;30039;51.462;6.892;2023-08-12T00:59:39;11.23;;;7.68;;
44328;SDS011;30039;51.462;6.892;2023-08-12T01:02:24;12.57;;;7.75;;
44328;SDS011;30039;51.462;6.892;2023-08-12T01:05:10;14.07;;;7.88;;
44328;SDS011;30039;51.462;6.892;2023-08-12T01:07:56;13.02;;;7.53;;
44328;SDS011;30039;51.462;6.892;2023-08-12T01:10:44;12.57;;;7.82;;
44328;SDS011;30039;51.462;6.892;2023-08-12T01:16:16;14.30;;;7.85;;
44328;SDS011;30039;51.462;6.892;2023-08-12T01:19:03;14.73;;;7.78;;
44328;SDS011;30039;51.462;6.892;2023-08-12T01:21:50;11.32;;;7.72;;
44328;SDS011;30039;51.462;6.892;2023-08-12T01:24:41;12.90;;;7.50;;
44328;SDS011;30039;51.462;6.892;2023-08-12T01:27:27;10.95;;;7.72;;
44328;SDS011;30039;51.462;6.892;2023-08-12T01:30:13;12.73;;;6.85;;
44328;SDS011;30039;51.462;6.892;2023-08-12T01:33:10;11.45;;;6.60;;
44328;SDS011;30039;51.462;6.892;2023-08-12T01:36:00;11.38;;;7.43;;
44328;SDS011;30039;51.462;6.892;2023-08-12T01:38:51;9.40;;;6.60;;
44328;SDS011;30039;51.462;6.892;2023-08-12T01:41:36;10.98;;;7.00;;
44328;SDS011;30039;51.462;6.892;2023-08-12T01:44:22;13.85;;;6.70;;
44328;SDS011;30039;51.462;6.892;2023-08-12T01:47:08;10.98;;;6.43;;
44328;SDS011;30039;51.462;6.892;2023-08-12T01:49:55;11.07;;;6.50;;
44328;SDS011;30039;51.462;6.892;2023-08-12T01:52:40;9.73;;;6.65;;
44328;SDS011;30039;51.462;6.892;2023-08-12T01:55:26;10.00;;;5.95;;
44328;SDS011;30039;51.462;6.892;2023-08-12T01:58:12;12.65;;;6.78;;
44328;SDS011;30039;51.462;6.892;2023-08-12T02:00:57;11.90;;;6.00;;
44328;SDS011;30039;51.462;6.892;2023-08-12T02:03:43;9.60;;;6.38;;
44328;SDS011;30039;51.462;6.892;2023-08-12T02:06:28;10.88;;;6.50;;
44328;SDS011;30039;51.462;6.892;2023-08-12T02:09:14;9.40;;;5.80;;
44328;SDS011;30039;51.462;6.892;2023-08-12T02:11:59;11.35;;;6.80;;
44328;SDS011;30039;51.462;6.892;2023-08-12T02:14:45;8.82;;;5.90;;
44328;SDS011;30039;51.462;6.892;2023-08-12T02:17:31;11.00;;;6.10;;
44328;SDS011;30039;51.462;6.892;2023-08-12T02:20:16;12.32;;;5.90;;
44328;SDS011;30039;51.462;6.892;2023-08-12T02:23:02;9.57;;;5.35;;
44328;SDS011;30039;51.462;6.892;2023-08-12T02:25:47;8.48;;;5.18;;
44328;SDS011;30039;51.462;6.892;2023-08-12T02:28:33;11.13;;;5.88;;
44328;SDS011;30039;51.462;6.892;2023-08-12T02:31:18;11.75;;;5.93;;
44328;SDS011;30039;51.462;6.892;2023-08-12T02:34:04;9.13;;;5.40;;
44328;SDS011;30039;51.462;6.892;2023-08-12T02:36:50;9.35;;;5.88;;
44328;SDS011;30039;51.462;6.892;2023-08-12T02:39:35;8.23;;;5.70;;
44328;SDS011;30039;51.462;6.892;2023-08-12T02:42:21;8.57;;;5.35;;
44328;SDS011;30039;51.462;6.892;2023-08-12T02:45:06;8.57;;;4.70;;
44328;SDS011;30039;51.462;6.892;2023-08-12T02:47:52;10.90;;;5.53;;
44328;SDS011;30039;51.462;6.892;2023-08-12T02:50:38;7.30;;;4.80;;
44328;SDS011;30039;51.462;6.892;2023-08-12T02:53:24;9.63;;;5.18;;
44328;SDS011;30039;51.462;6.892;2023-08-12T02:56:09;8.60;;;5.05;;
44328;SDS011;30039;51.462;6.892;2023-08-12T02:58:55;11.68;;;5.78;;
44328;SDS011;30039;51.462;6.892;2023-08-12T03:01:41;8.50;;;5.20;;
44328;SDS011;30039;51.462;6.892;2023-08-12T03:04:27;10.98;;;5.70;;
44328;SDS011;30039;51.462;6.892;2023-08-12T03:07:13;10.63;;;5.22;;
44328;SDS011;30039;51.462;6.892;2023-08-12T03:09:59;10.52;;;5.85;;
44328;SDS011;30039;51.462;6.892;2023-08-12T03:12:45;10.73;;;5.47;;
44328;SDS011;30039;51.462;6.892;2023-08-12T03:15:30;8.90;;;5.70;;
44328;SDS011;30039;51.462;6.892;2023-08-12T03:18:16;9.90;;;5.50;;
44328;SDS011;30039;51.462;6.892;2023-08-12T03:21:05;10.07;;;5.25;;
44328;SDS011;30039;51.462;6.892;2023-08-12T03:23:50;10.80;;;5.32;;
44328;SDS011;30039;51.462;6.892;2023-08-12T03:26:36;11.73;;;5.30;;
44328;SDS011;30039;51.462;6.892;2023-08-12T03:29:21;8.57;;;5.10;;
44328;SDS011;30039;51.462;6.892;2023-08-12T03:32:07;10.82;;;5.82;;
44328;SDS011;30039;51.462;6.892;2023-08-12T03:34:52;10.82;;;5.80;;
44328;SDS011;30039;51.462;6.892;2023-08-12T03:37:38;10.40;;;5.57;;
44328;SDS011;30039;51.462;6.892;2023-08-12T03:40:23;15.40;;;6.30;;
44328;SDS011;30039;51.462;6.892;2023-08-12T03:43:09;9.80;;;5.88;;
44328;SDS011;30039;51.462;6.892;2023-08-12T03:45:55;8.13;;;5.53;;
44328;SDS011;30039;51.462;6.892;2023-08-12T03:48:40;11.60;;;6.30;;
44328;SDS011;30039;51.462;6.892;2023-08-12T03:51:26;9.95;;;5.15;;
44328;SDS011;30039;51.462;6.892;2023-08-12T03:54:12;10.02;;;5.70;;
44328;SDS011;30039;51.462;6.892;2023-08-12T03:56:57;7.57;;;5.57;;
44328;SDS011;30039;51.462;6.892;2023-08-12T03:59:43;9.13;;;5.60;;
44328;SDS011;30039;51.462;6.892;2023-08-12T04:02:28;10.65;;;5.45;;
44328;SDS011;30039;51.462;6.892;2023-08-12T04:05:14;7.65;;;4.97;;
44328;SDS011;30039;51.462;6.892;2023-08-12T04:08:00;7.75;;;5.20;;
44328;SDS011;30039;51.462;6.892;2023-08-12T04:10:46;7.40;;;4.88;;
44328;SDS011;30039;51.462;6.892;2023-08-12T04:13:32;11.63;;;5.53;;
44328;SDS011;30039;51.462;6.892;2023-08-12T04:16:18;10.20;;;5.03;;
44328;SDS011;30039;51.462;6.892;2023-08-12T04:19:04;9.50;;;5.40;;
44328;SDS011;30039;51.462;6.892;2023-08-12T04:21:49;12.55;;;5.90;;
44328;SDS011;30039;51.462;6.892;2023-08-12T04:24:35;7.82;;;5.05;;
44328;SDS011;30039;51.462;6.892;2023-08-12T04:27:20;9.75;;;5.28;;
44328;SDS011;30039;51.462;6.892;2023-08-12T04:30:06;8.52;;;5.40;;
44328;SDS011;30039;51.462;6.892;2023-08-12T04:32:52;7.88;;;5.03;;
44328;SDS011;30039;51.462;6.892;2023-08-12T04:35:38;11.90;;;4.97;;
44328;SDS011;30039;51.462;6.892;2023-08-12T04:38:23;7.88;;;5.70;;
44328;SDS011;30039;51.462;6.892;2023-08-12T04:41:09;10.15;;;5.47;;
44328;SDS011;30039;51.462;6.892;2023-08-12T04:43:55;8.57;;;5.75;;
44328;SDS011;30039;51.462;6.892;2023-08-12T04:46:40;9.57;;;5.28;;
44328;SDS011;30039;51.462;6.892;2023-08-12T04:49:26;8.65;;;5.22;;
44328;SDS011;30039;51.462;6.892;2023-08-12T04:52:12;12.95;;;5.70;;
44328;SDS011;30039;51.462;6.892;2023-08-12T04:54:58;10.52;;;5.32;;
44328;SDS011;30039;51.462;6.892;2023-08-12T04:57:43;8.40;;;5.07;;
44328;SDS011;30039;51.462;6.892;2023-08-12T05:00:29;6.90;;;4.45;;
44328;SDS011;30039;51.462;6.892;2023-08-12T05:03:15;10.02;;;5.47;;
44328;SDS011;30039;51.462;6.892;2023-08-12T05:06:00;7.82;;;5.05;;
44328;SDS011;30039;51.462;6.892;2023-08-12T05:08:46;8.88;;;5.70;;
44328;SDS011;30039;51.462;6.892;2023-08-12T05:11:32;7.68;;;5.38;;
44328;SDS011;30039;51.462;6.892;2023-08-12T05:14:17;7.50;;;5.10;;
44328;SDS011;30039;51.462;6.892;2023-08-12T05:17:03;9.45;;;5.18;;
44328;SDS011;30039;51.462;6.892;2023-08-12T05:19:48;7.40;;;5.32;;
44328;SDS011;30039;51.462;6.892;2023-08-12T05:22:37;10.45;;;5.18;;
44328;SDS011;30039;51.462;6.892;2023-08-12T05:25:23;8.98;;;5.65;;
44328;SDS011;30039;51.462;6.892;2023-08-12T05:28:08;10.20;;;5.22;;
44328;SDS011;30039;51.462;6.892;2023-08-12T05:30:54;8.27;;;4.97;;
44328;SDS011;30039;51.462;6.892;2023-08-12T05:33:42;7.15;;;4.60;;
44328;SDS011;30039;51.462;6.892;2023-08-12T05:36:28;9.77;;;4.90;;
44328;SDS011;30039;51.462;6.892;2023-08-12T05:39:14;8.23;;;5.07;;
44328;SDS011;30039;51.462;6.892;2023-08-12T05:42:00;7.95;;;4.35;;
44328;SDS011;30039;51.462;6.892;2023-08-12T05:44:46;8.23;;;4.93;;
44328;SDS011;30039;51.462;6.892;2023-08-12T05:47:32;9.77;;;5.35;;
44328;SDS011;30039;51.462;6.892;2023-08-12T05:50:18;10.38;;;5.38;;
44328;SDS011;30039;51.462;6.892;2023-08-12T05:53:03;10.15;;;5.40;;
44328;SDS011;30039;51.462;6.892;2023-08-12T05:55:49;7.63;;;5.28;;
44328;SDS011;30039;51.462;6.892;2023-08-12T05:58:34;8.65;;;4.82;;
44328;SDS011;30039;51.462;6.892;2023-08-12T06:01:20;9.45;;;5.13;;
44328;SDS011;30039;51.462;6.892;2023-08-12T06:04:05;7.70;;;5.00;;
44328;SDS011;30039;51.462;6.892;2023-08-12T06:06:51;9.13;;;4.57;;
44328;SDS011;30039;51.462;6.892;2023-08-12T06:09:37;8.18;;;5.60;;
44328;SDS011;30039;51.462;6.892;2023-08-12T06:12:22;9.73;;;5.15;;
44328;SDS011;30039;51.462;6.892;2023-08-12T06:15:08;8.82;;;5.13;;
44328;SDS011;30039;51.462;6.892;2023-08-12T06:17:54;8.63;;;5.35;;
44328;SDS011;30039;51.462;6.892;2023-08-12T06:20:40;8.98;;;5.10;;
44328;SDS011;30039;51.462;6.892;2023-08-12T06:23:25;7.88;;;4.75;;
44328;SDS011;30039;51.462;6.892;2023-08-12T06:26:11;8.13;;;5.00;;
44328;SDS011;30039;51.462;6.892;2023-08-12T06:28:57;9.07;;;4.85;;
44328;SDS011;30039;51.462;6.892;2023-08-12T06:31:42;7.88;;;4.57;;
44328;SDS011;30039;51.462;6.892;2023-08-12T06:34:28;7.10;;;4.43;;
44328;SDS011;30039;51.462;6.892;2023-08-12T06:37:14;7.45;;;4.47;;
44328;SDS011;30039;51.462;6.892;2023-08-12T06:39:59;7.68;;;4.53;;
44328;SDS011;30039;51.462;6.892;2023-08-12T06:42:45;5.85;;;4.13;;
44328;SDS011;30039;51.462;6.892;2023-08-12T06:45:30;7.20;;;4.63;;
44328;SDS011;30039;51.462;6.892;2023-08-12T06:48:16;8.50;;;4.28;;
44328;SDS011;30039;51.462;6.892;2023-08-12T06:51:02;8.77;;;3.83;;
44328;SDS011;30039;51.462;6.892;2023-08-12T06:53:55;8.57;;;4.13;;
44328;SDS011;30039;51.462;6.892;2023-08-12T06:56:41;6.70;;;3.88;;
44328;SDS011;30039;51.462;6.892;2023-08-12T06:59:26;6.50;;;4.22;;
44328;SDS011;30039;51.462;6.892;2023-08-12T07:02:12;5.82;;;4.07;;
44328;SDS011;30039;51.462;6.892;2023-08-12T07:04:57;7.15;;;4.40;;
44328;SDS011;30039;51.462;6.892;2023-08-12T07:07:43;4.80;;;4.00;;
44328;SDS011;30039;51.462;6.892;2023-08-12T07:10:28;5.50;;;3.70;;
44328;SDS011;30039;51.462;6.892;2023-08-12T07:13:14;7.75;;;3.85;;
44328;SDS011;30039;51.462;6.892;2023-08-12T07:16:00;4.20;;;3.45;;
44328;SDS011;30039;51.462;6.892;2023-08-12T07:18:45;5.88;;;3.70;;
44328;SDS011;30039;51.462;6.892;2023-08-12T07:21:31;6.38;;;4.05;;
44328;SDS011;30039;51.462;6.892;2023-08-12T07:24:17;5.78;;;3.45;;
44328;SDS011;30039;51.462;6.892;2023-08-12T07:27:05;5.20;;;3.55;;
44328;SDS011;30039;51.462;6.892;2023-08-12T07:29:59;5.50;;;3.88;;
44328;SDS011;30039;51.462;6.892;2023-08-12T07:32:53;5.68;;;3.70;;
44328;SDS011;30039;51.462;6.892;2023-08-12T07:35:43;4.50;;;3.50;;
44328;SDS011;30039;51.462;6.892;2023-08-12T07:38:28;9.27;;;3.42;;
44328;SDS011;30039;51.462;6.892;2023-08-12T07:41:14;4.82;;;3.88;;
44328;SDS011;30039;51.462;6.892;2023-08-12T07:44:04;5.07;;;3.80;;
44328;SDS011;30039;51.462;6.892;2023-08-12T07:46:55;5.20;;;3.47;;
44328;SDS011;30039;51.462;6.892;2023-08-12T07:49:42;6.72;;;3.88;;
44328;SDS011;30039;51.462;6.892;2023-08-12T07:52:27;5.63;;;3.80;;
44328;SDS011;30039;51.462;6.892;2023-08-12T07:55:13;5.53;;;3.88;;
44328;SDS011;30039;51.462;6.892;2023-08-12T07:57:59;4.07;;;3.45;;
44328;SDS011;30039;51.462;6.892;2023-08-12T08:00:44;6.97;;;4.28;;
44328;SDS011;30039;51.462;6.892;2023-08-12T08:03:30;5.57;;;3.65;;
44328;SDS011;30039;51.462;6.892;2023-08-12T08:06:16;5.20;;;3.47;;
44328;SDS011;30039;51.462;6.892;2023-08-12T08:09:01;5.05;;;4.10;;
44328;SDS011;30039;51.462;6.892;2023-08-12T08:11:49;5.18;;;3.85;;
44328;SDS011;30039;51.462;6.892;2023-08-12T08:14:34;5.25;;;3.83;;
44328;SDS011;30039;51.462;6.892;2023-08-12T08:17:20;5.22;;;3.63;;
44328;SDS011;30039;51.462;6.892;2023-08-12T08:20:06;5.93;;;3.55;;
44328;SDS011;30039;51.462;6.892;2023-08-12T08:22:51;4.20;;;3.67;;
44328;SDS011;30039;51.462;6.892;2023-08-12T08:25:40;5.88;;;3.97;;
44328;SDS011;30039;51.462;6.892;2023-08-12T08:28:26;5.13;;;3.83;;
44328;SDS011;30039;51.462;6.892;2023-08-12T08:31:11;5.03;;;3.40;;
44328;SDS011;30039;51.462;6.892;2023-08-12T08:33:57;7.07;;;3.35;;
44328;SDS011;30039;51.462;6.892;2023-08-12T08:36:43;4.15;;;3.38;;
44328;SDS011;30039;51.462;6.892;2023-08-12T08:39:28;5.25;;;3.55;;
44328;SDS011;30039;51.462;6.892;2023-08-12T08:42:14;5.75;;;3.58;;
44328;SDS011;30039;51.462;6.892;2023-08-12T08:45:01;7.03;;;3.50;;
44328;SDS011;30039;51.462;6.892;2023-08-12T08:47:47;5.65;;;3.63;;
44328;SDS011;30039;51.462;6.892;2023-08-12T08:50:33;6.03;;;3.45;;
44328;SDS011;30039;51.462;6.892;2023-08-12T08:53:19;4.78;;;3.30;;
44328;SDS011;30039;51.462;6.892;2023-08-12T08:56:05;6.07;;;3.40;;
44328;SDS011;30039;51.462;6.892;2023-08-12T08:58:52;5.63;;;3.97;;
44328;SDS011;30039;51.462;6.892;2023-08-12T09:01:37;5.15;;;3.05;;
44328;SDS011;30039;51.462;6.892;2023-08-12T09:04:24;4.05;;;3.00;;
44328;SDS011;30039;51.462;6.892;2023-08-12T09:07:10;3.67;;;2.92;;
44328;SDS011;30039;51.462;6.892;2023-08-12T09:09:56;6.00;;;3.40;;
44328;SDS011;30039;51.462;6.892;2023-08-12T09:12:43;6.18;;;3.10;;
44328;SDS011;30039;51.462;6.892;2023-08-12T09:15:29;4.32;;;3.00;;
44328;SDS011;30039;51.462;6.892;2023-08-12T09:18:16;4.38;;;2.83;;
44328;SDS011;30039;51.462;6.892;2023-08-12T09:21:01;5.05;;;2.90;;
44328;SDS011;30039;51.462;6.892;2023-08-12T09:23:47;4.72;;;2.40;;
44328;SDS011;30039;51.462;6.892;2023-08-12T09:26:33;4.63;;;2.72;;
44328;SDS011;30039;51.462;6.892;2023-08-12T09:29:23;3.47;;;2.60;;
44328;SDS011;30039;51.462;6.892;2023-08-12T09:32:13;3.60;;;2.28;;
44328;SDS011;30039;51.462;6.892;2023-08-12T09:35:02;5.03;;;2.85;;
44328;SDS011;30039;51.462;6.892;2023-08-12T09:37:50;6.15;;;2.50;;
44328;SDS011;30039;51.462;6.892;2023-08-12T09:40:36;5.75;;;3.10;;
44328;SDS011;30039;51.462;6.892;2023-08-12T09:43:27;7.07;;;2.83;;
44328;SDS011;30039;51.462;6.892;2023-08-12T09:46:13;5.72;;;3.25;;
44328;SDS011;30039;51.462;6.892;2023-08-12T09:49:01;5.57;;;2.75;;
44328;SDS011;30039;51.462;6.892;2023-08-12T09:51:50;3.97;;;2.70;;
44328;SDS011;30039;51.462;6.892;2023-08-12T09:54:36;3.95;;;2.40;;
44328;SDS011;30039;51.462;6.892;2023-08-12T09:57:22;5.43;;;2.70;;
44328;SDS011;30039;51.462;6.892;2023-08-12T10:00:10;4.45;;;2.28;;
44328;SDS011;30039;51.462;6.892;2023-08-12T10:03:02;2.95;;;2.15;;
44328;SDS011;30039;51.462;6.892;2023-08-12T10:05:49;3.63;;;2.35;;
44328;SDS011;30039;51.462;6.892;2023-08-12T10:08:35;3.78;;;2.25;;
44328;SDS011;30039;51.462;6.892;2023-08-12T10:11:20;4.47;;;2.20;;
44328;SDS011;30039;51.462;6.892;2023-08-12T10:14:06;3.33;;;1.98;;
44328;SDS011;30039;51.462;6.892;2023-08-12T10:16:54;2.70;;;1.88;;
44328;SDS011;30039;51.462;6.892;2023-08-12T10:19:43;3.00;;;2.00;;
44328;SDS011;30039;51.462;6.892;2023-08-12T10:22:29;3.10;;;1.90;;
44328;SDS011;30039;51.462;6.892;2023-08-12T10:25:15;2.95;;;2.00;;
44328;SDS011;30039;51.462;6.892;2023-08-12T10:28:03;3.03;;;1.80;;
44328;SDS011;30039;51.462;6.892;2023-08-12T10:30:49;2.75;;;1.55;;
44328;SDS011;30039;51.462;6.892;2023-08-12T10:33:37;3.22;;;1.80;;
44328;SDS011;30039;51.462;6.892;2023-08-12T10:36:23;3.15;;;1.60;;
44328;SDS011;30039;51.462;6.892;2023-08-12T10:39:09;1.73;;;1.35;;
44328;SDS011;30039;51.462;6.892;2023-08-12T10:41:55;2.60;;;1.50;;
44328;SDS011;30039;51.462;6.892;2023-08-12T10:44:51;2.22;;;1.30;;
44328;SDS011;30039;51.462;6.892;2023-08-12T10:47:47;1.92;;;1.20;;
44328;SDS011;30039;51.462;6.892;2023-08-12T10:50:33;1.98;;;1.30;;
44328;SDS011;30039;51.462;6.892;2023-08-12T10:53:23;2.00;;;1.20;;
44328;SDS011;30039;51.462;6.892;2023-08-12T10:56:10;3.65;;;1.30;;
44328;SDS011;30039;51.462;6.892;2023-08-12T10:58:56;1.65;;;1.20;;
44328;SDS011;30039;51.462;6.892;2023-08-12T11:01:42;2.53;;;1.20;;
44328;SDS011;30039;51.462;6.892;2023-08-12T11:04:27;3.75;;;1.73;;
44328;SDS011;30039;51.462;6.892;2023-08-12T11:07:20;1.55;;;1.20;;
44328;SDS011;30039;51.462;6.892;2023-08-12T11:15:42;1.88;;;1.23;;
44328;SDS011;30039;51.462;6.892;2023-08-12T11:18:28;3.55;;;1.10;;
44328;SDS011;30039;51.462;6.892;2023-08-12T11:21:14;1.90;;;0.93;;
44328;SDS011;30039;51.462;6.892;2023-08-12T11:24:00;1.35;;;1.00;;
44328;SDS011;30039;51.462;6.892;2023-08-12T11:26:46;1.83;;;1.15;;
44328;SDS011;30039;51.462;6.892;2023-08-12T11:29:33;0.95;;;0.88;;
44328;SDS011;30039;51.462;6.892;2023-08-12T11:32:19;1.27;;;1.00;;
44328;SDS011;30039;51.462;6.892;2023-08-12T11:35:05;1.90;;;1.13;;
44328;SDS011;30039;51.462;6.892;2023-08-12T11:37:52;2.08;;;1.10;;
44328;SDS011;30039;51.462;6.892;2023-08-12T11:40:38;1.45;;;1.08;;
44328;SDS011;30039;51.462;6.892;2023-08-12T11:43:25;1.23;;;0.98;;
44328;SDS011;30039;51.462;6.892;2023-08-12T11:46:11;2.85;;;1.52;;
44328;SDS011;30039;51.462;6.892;2023-08-12T11:48:57;3.13;;;1.75;;
44328;SDS011;30039;51.462;6.892;2023-08-12T11:51:42;3.00;;;1.50;;
44328;SDS011;30039;51.462;6.892;2023-08-12T11:54:29;3.83;;;1.67;;
44328;SDS011;30039;51.462;6.892;2023-08-12T11:57:15;1.90;;;1.33;;
44328;SDS011;30039;51.462;6.892;2023-08-12T12:00:01;3.38;;;1.83;;
44328;SDS011;30039;51.462;6.892;2023-08-12T12:02:53;4.22;;;1.88;;
44328;SDS011;30039;51.462;6.892;2023-08-12T12:05:38;3.67;;;1.98;;
44328;SDS011;30039;51.462;6.892;2023-08-12T12:08:24;2.13;;;1.40;;
44328;SDS011;30039;51.462;6.892;2023-08-12T12:11:10;1.98;;;1.52;;
44328;SDS011;30039;51.462;6.892;2023-08-12T12:13:55;3.13;;;1.60;;
44328;SDS011;30039;51.462;6.892;2023-08-12T12:16:42;3.00;;;1.75;;
44328;SDS011;30039;51.462;6.892;2023-08-12T12:19:28;2.13;;;1.88;;
44328;SDS011;30039;51.462;6.892;2023-08-12T12:22:13;3.85;;;2.00;;
44328;SDS011;30039;51.462;6.892;2023-08-12T12:24:59;2.97;;;1.70;;
44328;SDS011;30039;51.462;6.892;2023-08-12T12:27:45;3.08;;;2.20;;
44328;SDS011;30039;51.462;6.892;2023-08-12T12:30:31;3.13;;;2.50;;
44328;SDS011;30039;51.462;6.892;2023-08-12T12:33:17;4.20;;;2.63;;
44328;SDS011;30039;51.462;6.892;2023-08-12T12:36:03;5.55;;;2.70;;
44328;SDS011;30039;51.462;6.892;2023-08-12T12:38:48;3.65;;;2.67;;
44328;SDS011;30039;51.462;6.892;2023-08-12T12:41:34;4.22;;;3.08;;
44328;SDS011;30039;51.462;6.892;2023-08-12T12:44:20;3.55;;;2.88;;
44328;SDS011;30039;51.462;6.892;2023-08-12T12:47:05;4.35;;;3.20;;
44328;SDS011;30039;51.462;6.892;2023-08-12T12:49:51;4.88;;;3.50;;
44328;SDS011;30039;51.462;6.892;2023-08-12T12:52:36;5.60;;;3.28;;
44328;SDS011;30039;51.462;6.892;2023-08-12T12:55:22;4.65;;;3.90;;
44328;SDS011;30039;51.462;6.892;2023-08-12T12:58:08;5.20;;;3.70;;
44328;SDS011;30039;51.462;6.892;2023-08-12T13:00:54;4.95;;;3.85;;
44328;SDS011;30039;51.462;6.892;2023-08-12T13:03:40;5.63;;;4.82;;
44328;SDS011;30039;51.462;6.892;2023-08-12T13:06:25;6.15;;;4.43;;
44328;SDS011;30039;51.462;6.892;2023-08-12T13:09:11;7.22;;;4.78;;
44328;SDS011;30039;51.462;6.892;2023-08-12T13:11:57;7.50;;;5.63;;
44328;SDS011;30039;51.462;6.892;2023-08-12T13:14:43;7.57;;;5.75;;
44328;SDS011;30039;51.462;6.892;2023-08-12T13:17:29;8.07;;;6.50;;
44328;SDS011;30039;51.462;6.892;2023-08-12T13:20:14;7.63;;;5.97;;
44328;SDS011;30039;51.462;6.892;2023-08-12T13:23:00;9.98;;;6.10;;
44328;SDS011;30039;51.462;6.892;2023-08-12T13:25:46;7.95;;;6.10;;
44328;SDS011;30039;51.462;6.892;2023-08-12T13:28:31;8.75;;;6.60;;
44328;SDS011;30039;51.462;6.892;2023-08-12T13:31:17;7.40;;;6.07;;
44328;SDS011;30039;51.462;6.892;2023-08-12T13:34:03;7.10;;;6.22;;
44328;SDS011;30039;51.462;6.892;2023-08-12T13:36:48;9.07;;;6.38;;
44328;SDS011;30039;51.462;6.892;2023-08-12T13:39:34;7.50;;;5.90;;
44328;SDS011;30039;51.462;6.892;2023-08-12T13:42:20;6.53;;;4.63;;
44328;SDS011;30039;51.462;6.892;2023-08-12T13:45:05;5.32;;;3.78;;
44328;SDS011;30039;51.462;6.892;2023-08-12T13:47:51;5.53;;;4.00;;
44328;SDS011;30039;51.462;6.892;2023-08-12T13:50:37;5.00;;;3.35;;
44328;SDS011;30039;51.462;6.892;2023-08-12T13:53:22;4.53;;;3.50;;
44328;SDS011;30039;51.462;6.892;2023-08-12T13:56:09;4.30;;;3.20;;
44328;SDS011;30039;51.462;6.892;2023-08-12T13:58:54;3.83;;;3.35;;
44328;SDS011;30039;51.462;6.892;2023-08-12T14:01:41;5.97;;;3.60;;
44328;SDS011;30039;51.462;6.892;2023-08-12T14:04:26;5.30;;;4.30;;
44328;SDS011;30039;51.462;6.892;2023-08-12T14:07:12;5.65;;;4.57;;
44328;SDS011;30039;51.462;6.892;2023-08-12T14:09:58;5.88;;;4.40;;
44328;SDS011;30039;51.462;6.892;2023-08-12T14:12:44;6.10;;;4.72;;
44328;SDS011;30039;51.462;6.892;2023-08-12T14:15:30;6.72;;;4.50;;
44328;SDS011;30039;51.462;6.892;2023-08-12T14:18:16;5.53;;;3.92;;
44328;SDS011;30039;51.462;6.892;2023-08-12T14:21:01;5.45;;;3.40;;
44328;SDS011;30039;51.462;6.892;2023-08-12T14:23:47;3.97;;;3.05;;
44328;SDS011;30039;51.462;6.892;2023-08-12T14:26:32;4.03;;;3.53;;
44328;SDS011;30039;51.462;6.892;2023-08-12T14:29:18;4.60;;;3.05;;
44328;SDS011;30039;51.462;6.892;2023-08-12T14:32:04;4.95;;;3.30;;
44328;SDS011;30039;51.462;6.892;2023-08-12T14:34:50;4.32;;;3.15;;
44328;SDS011;30039;51.462;6.892;2023-08-12T14:37:35;4.65;;;3.50;;
44328;SDS011;30039;51.462;6.892;2023-08-12T14:40:21;6.90;;;2.92;;
44328;SDS011;30039;51.462;6.892;2023-08-12T14:43:07;3.70;;;2.90;;
44328;SDS011;30039;51.462;6.892;2023-08-12T14:45:53;3.50;;;2.70;;
44328;SDS011;30039;51.462;6.892;2023-08-12T14:48:38;3.83;;;3.05;;
44328;SDS011;30039;51.462;6.892;2023-08-12T14:51:24;4.55;;;2.90;;
44328;SDS011;30039;51.462;6.892;2023-08-12T14:54:10;5.70;;;3.08;;
44328;SDS011;30039;51.462;6.892;2023-08-12T14:56:56;4.68;;;3.42;;
44328;SDS011;30039;51.462;6.892;2023-08-12T14:59:41;3.85;;;2.92;;
44328;SDS011;30039;51.462;6.892;2023-08-12T15:02:27;2.63;;;2.22;;
44328;SDS011;30039;51.462;6.892;2023-08-12T15:05:12;3.08;;;2.10;;
44328;SDS011;30039;51.462;6.892;2023-08-12T15:07:58;3.58;;;2.28;;
44328;SDS011;30039;51.462;6.892;2023-08-12T15:10:44;4.53;;;1.90;;
44328;SDS011;30039;51.462;6.892;2023-08-12T15:13:29;2.38;;;1.60;;
44328;SDS011;30039;51.462;6.892;2023-08-12T15:16:15;4.28;;;1.80;;
44328;SDS011;30039;51.462;6.892;2023-08-12T15:19:00;2.92;;;1.50;;
44328;SDS011;30039;51.462;6.892;2023-08-12T15:21:47;2.83;;;1.83;;
44328;SDS011;30039;51.462;6.892;2023-08-12T15:24:34;2.33;;;1.50;;
44328;SDS011;30039;51.462;6.892;2023-08-12T15:27:19;2.50;;;1.42;;
44328;SDS011;30039;51.462;6.892;2023-08-12T15:30:05;4.18;;;1.67;;
44328;SDS011;30039;51.462;6.892;2023-08-12T15:32:51;4.53;;;1.33;;
44328;SDS011;30039;51.462;6.892;2023-08-12T15:35:37;2.63;;;1.52;;
44328;SDS011;30039;51.462;6.892;2023-08-12T15:38:23;3.42;;;1.63;;
44328;SDS011;30039;51.462;6.892;2023-08-12T15:41:13;3.20;;;1.52;;
44328;SDS011;30039;51.462;6.892;2023-08-12T15:43:59;2.83;;;1.60;;
44328;SDS011;30039;51.462;6.892;2023-08-12T15:46:44;2.80;;;1.45;;
44328;SDS011;30039;51.462;6.892;2023-08-12T15:49:33;5.05;;;1.73;;
44328;SDS011;30039;51.462;6.892;2023-08-12T15:52:19;3.80;;;1.77;;
44328;SDS011;30039;51.462;6.892;2023-08-12T15:55:05;3.15;;;1.50;;
44328;SDS011;30039;51.462;6.892;2023-08-12T15:57:51;3.17;;;1.42;;
44328;SDS011;30039;51.462;6.892;2023-08-12T16:00:36;2.45;;;1.42;;
44328;SDS011;30039;51.462;6.892;2023-08-12T16:03:22;2.95;;;1.55;;
44328;SDS011;30039;51.462;6.892;2023-08-12T16:06:08;3.50;;;1.80;;
44328;SDS011;30039;51.462;6.892;2023-08-12T16:08:53;4.68;;;1.58;;
44328;SDS011;30039;51.462;6.892;2023-08-12T16:11:39;3.13;;;1.58;;
44328;SDS011;30039;51.462;6.892;2023-08-12T16:14:24;5.10;;;1.63;;
44328;SDS011;30039;51.462;6.892;2023-08-12T16:17:10;3.38;;;1.50;;
44328;SDS011;30039;51.462;6.892;2023-08-12T16:19:56;5.57;;;1.35;;
44328;SDS011;30039;51.462;6.892;2023-08-12T16:22:41;3.50;;;1.60;;
44328;SDS011;30039;51.462;6.892;2023-08-12T16:25:27;4.35;;;1.77;;
44328;SDS011;30039;51.462;6.892;2023-08-12T16:28:13;6.82;;;1.67;;
44328;SDS011;30039;51.462;6.892;2023-08-12T16:30:58;4.68;;;1.75;;
44328;SDS011;30039;51.462;6.892;2023-08-12T16:33:45;5.05;;;1.80;;
44328;SDS011;30039;51.462;6.892;2023-08-12T16:36:31;7.80;;;1.70;;
44328;SDS011;30039;51.462;6.892;2023-08-12T16:39:17;3.60;;;1.80;;
44328;SDS011;30039;51.462;6.892;2023-08-12T16:42:03;4.55;;;1.70;;
44328;SDS011;30039;51.462;6.892;2023-08-12T16:44:49;8.60;;;4.63;;
44328;SDS011;30039;51.462;6.892;2023-08-12T16:47:35;5.78;;;2.47;;